Time;durP1;ratioP1;P1;durP2;ratioP2;P2;SDS_P1;SDS_P2;PMS_P1;PMS_P2;Temp;Humidity;BMP_temperature;BMP_pressure;BME280_temperature;BME280_humidity;BME280_pressure;Samples;Min_cycle;Max_cycle;Signal;HPM_P1;HPM_P2
2023/04/23 00:01:13;;;;;;;48.80;37.90;;;6.40;99.90;;;;;;4853957;29;20512;-83
2023/04/23 00:21:44;;;;;;;48.67;36.87;;;6.10;99.90;;;;;;4882564;29;20755;-81
2023/04/23 00:41:45;;;;;;;43.57;33.93;;;6.00;99.90;;;;;;4889316;28;20629;-82
2023/04/23 01:17:26;;;;;;;43.87;31.27;;;5.60;99.90;;;;;;4961286;28;20214;-84
2023/04/23 01:42:43;;;;;;;36.30;28.10;;;5.60;99.90;;;;;;4839495;29;20306;-82
2023/04/23 02:13:20;;;;;;;38.87;28.53;;;5.30;99.90;;;;;;4833366;29;20246;-82
2023/04/23 02:17:44;;;;;;;38.43;27.43;;;5.40;99.90;;;;;;4762494;29;20681;-83
2023/04/23 02:43:28;;;;;;;39.07;29.00;;;5.30;99.90;;;;;;4892862;28;20234;-83
2023/04/23 03:18:32;;;;;;;43.97;30.20;;;4.90;99.90;;;;;;4903913;28;20536;-82
2023/04/23 04:15:03;;;;;;;38.77;26.30;;;5.70;99.90;;;;;;4857923;29;20242;-83
2023/04/23 04:19:22;;;;;;;38.00;26.07;;;5.90;99.90;;;;;;4752695;29;20220;-83
2023/04/23 04:44:44;;;;;;;29.57;21.27;;;7.80;99.90;;;;;;4844355;29;20293;-82
2023/04/23 05:05:29;;;;;;;23.77;17.83;;;9.20;99.90;;;;;;4820825;29;20210;-84
2023/04/23 05:36:08;;;;;;;17.80;14.73;;;10.70;92.30;;;;;;4751051;29;20726;-82
2023/04/23 06:11:35;;;;;;;15.97;14.23;;;12.50;86.70;;;;;;4805333;28;20430;-82
2023/04/23 06:36:51;;;;;;;19.50;13.30;;;13.80;82.60;;;;;;4807928;29;20226;-87
2023/04/23 07:06:45;;;;;;;14.00;11.37;;;15.50;79.20;;;;;;4749044;29;20446;-86
2023/04/23 07:42:51;;;;;;;9.23;8.33;;;17.50;66.00;;;;;;4795270;29;20277;-86
2023/04/23 08:17:50;;;;;;;10.03;6.80;;;18.70;56.40;;;;;;4755408;29;20238;-81
2023/04/23 08:43:43;;;;;;;8.97;5.40;;;19.00;49.20;;;;;;4718783;29;20241;-80
2023/04/23 09:29:18;;;;;;;6.57;4.50;;;19.50;43.90;;;;;;4894439;28;20241;-86
2023/04/23 09:59:33;;;;;;;5.60;4.07;;;19.50;43.50;;;;;;4839360;28;20203;-85
2023/04/23 10:34:36;;;;;;;4.70;4.07;;;19.50;43.20;;;;;;4833744;28;20744;-86
2023/04/23 11:15:48;;;;;;;3.73;3.23;;;20.20;43.30;;;;;;4601586;29;20607;-84
2023/04/23 11:40:39;;;;;;;4.87;3.70;;;20.20;41.20;;;;;;4631370;29;20216;-85
2023/04/23 12:16:42;;;;;;;4.68;3.60;;;20.40;41.10;;;;;;4666226;30;20215;-82
2023/04/23 12:21:02;;;;;;;4.17;3.57;;;20.40;41.10;;;;;;4611638;30;20535;-84
2023/04/23 12:42:01;;;;;;;3.97;3.58;;;21.10;40.50;;;;;;4785663;29;20210;-83
2023/04/23 13:07:04;;;;;;;4.32;3.60;;;22.30;38.50;;;;;;4753501;29;20236;-84
2023/04/23 13:37:43;;;;;;;4.10;3.70;;;22.60;38.90;;;;;;4718432;29;20544;-88
2023/04/23 13:57:46;;;;;;;5.65;4.10;;;23.40;37.30;;;;;;4808924;29;20202;-84
2023/04/23 14:23:19;;;;;;;5.60;4.00;;;26.00;37.20;;;;;;4783288;29;20583;-84
2023/04/23 15:28:47;;;;;;;4.85;4.35;;;28.70;35.30;;;;;;4764000;29;20815;-83
2023/04/23 15:54:36;;;;;;;4.78;4.38;;;24.50;36.00;;;;;;4818990;28;20748;-84
2023/04/23 16:19:50;;;;;;;5.95;4.78;;;21.60;37.40;;;;;;4792197;29;20311;-87
2023/04/23 17:00:31;;;;;;;5.37;4.70;;;19.90;38.70;;;;;;4779274;29;20278;-83
2023/04/23 17:30:49;;;;;;;5.73;4.60;;;18.70;40.30;;;;;;4799149;28;20295;-84
2023/04/23 17:50:45;;;;;;;6.77;4.80;;;17.70;42.90;;;;;;4856337;28;20300;-86
2023/04/23 18:26:47;;;;;;;8.33;5.40;;;16.20;45.00;;;;;;4943774;28;20654;-83
2023/04/23 18:31:06;;;;;;;7.93;5.00;;;16.10;43.60;;;;;;4897056;28;20674;-85
2023/04/23 18:51:51;;;;;;;6.23;5.53;;;16.20;43.40;;;;;;4813069;28;20230;-87
2023/04/23 19:12:23;;;;;;;9.07;5.47;;;15.30;44.90;;;;;;4814244;29;20251;-85
2023/04/23 19:16:43;;;;;;;8.17;6.43;;;15.00;46.90;;;;;;4780907;29;20570;-86
2023/04/23 19:47:07;;;;;;;8.87;6.90;;;13.80;63.00;;;;;;4687220;29;20806;-84
2023/04/23 20:12:31;;;;;;;7.97;7.10;;;14.20;60.00;;;;;;4626561;29;21035;-87
2023/04/23 20:33:02;;;;;;;7.87;7.07;;;14.40;60.80;;;;;;4649622;30;20441;-86
2023/04/23 21:28:59;;;;;;;11.97;8.37;;;12.60;75.10;;;;;;4760153;29;20232;-83
2023/04/23 21:49:23;;;;;;;10.53;8.43;;;12.40;79.80;;;;;;4719865;29;20248;-84
2023/04/23 22:19:52;;;;;;;10.57;8.50;;;11.50;88.10;;;;;;4732017;29;20474;-83
2023/04/23 22:49:44;;;;;;;10.90;8.77;;;10.10;93.20;;;;;;4749532;29;20522;-87
2023/04/23 23:15:37;;;;;;;11.57;9.10;;;10.00;92.80;;;;;;4778341;29;20228;-87
2023/04/23 23:45:56;;;;;;;11.43;9.80;;;9.90;92.80;;;;;;4914047;28;20206;-87
